Time,TemperatureF,DewpointF,PressureIn,WindDirection,WindDirectionDegrees,WindSpeedMPH,WindSpeedGustMPH,Humidity,HourlyPrecipIn,Conditions,Clouds,dailyrainin,SoftwareType,DateUTC
2015-01-31 00:02:00,23.7,16.7,29.73,ENE,74,10.0,18.0,74,0.00,,,0.00,meteohub,2015-01-31 05:02:00,
2015-01-31 00:07:00,23.4,16.0,29.72,ENE,74,4.0,18.0,73,0.00,,,0.00,meteohub,2015-01-31 05:07:00,
2015-01-31 00:12:00,23.2,15.8,29.72,ENE,74,15.0,18.0,73,0.00,,,0.00,meteohub,2015-01-31 05:12:00,
2015-01-31 00:17:00,22.8,15.4,29.72,ENE,74,10.0,17.0,73,0.00,,,0.00,meteohub,2015-01-31 05:17:00,
2015-01-31 00:22:00,22.6,15.6,29.71,ENE,74,9.0,16.0,74,0.00,,,0.00,meteohub,2015-01-31 05:22:00,
2015-01-31 00:27:00,22.5,15.1,29.71,ENE,74,8.0,16.0,73,0.00,,,0.00,meteohub,2015-01-31 05:27:00,
2015-01-31 00:32:00,22.5,15.4,29.71,ENE,74,9.0,16.0,74,0.00,,,0.00,meteohub,2015-01-31 05:32:00,
2015-01-31 00:37:00,21.9,14.5,29.71,ENE,74,5.0,16.0,73,0.00,,,0.00,meteohub,2015-01-31 05:37:00,
2015-01-31 00:42:00,21.7,14.4,29.71,ENE,74,5.0,16.0,73,0.00,,,0.00,meteohub,2015-01-31 05:42:00,
2015-01-31 00:47:00,21.7,14.7,29.71,ENE,74,4.0,16.0,74,0.00,,,0.00,meteohub,2015-01-31 05:47:00,
2015-01-31 00:52:00,21.7,14.7,29.71,ENE,74,0.0,14.0,74,0.00,,,0.00,meteohub,2015-01-31 05:52:00,
2015-01-31 00:57:00,21.6,14.2,29.72,ENE,74,4.0,11.0,73,0.00,,,0.00,meteohub,2015-01-31 05:57:00,
2015-01-31 01:02:00,21.2,13.8,29.72,ENE,74,1.0,10.0,73,0.00,,,0.00,meteohub,2015-01-31 06:02:00,
2015-01-31 01:07:00,20.8,13.6,29.72,ENE,74,7.0,12.0,73,0.00,,,0.00,meteohub,2015-01-31 06:07:00,
2015-01-31 01:12:00,20.7,13.5,29.72,ENE,74,3.0,15.0,73,0.00,,,0.00,meteohub,2015-01-31 06:12:00,
2015-01-31 01:17:00,20.5,13.3,29.72,ENE,74,3.0,15.0,73,0.00,,,0.00,meteohub,2015-01-31 06:17:00,
2015-01-31 01:22:00,20.3,13.1,29.73,ENE,74,8.0,15.0,73,0.00,,,0.00,meteohub,2015-01-31 06:22:00,
2015-01-31 01:27:00,20.1,12.9,29.72,ENE,74,3.0,20.0,73,0.00,,,0.00,meteohub,2015-01-31 06:27:00,
2015-01-31 01:32:00,19.9,12.7,29.72,ENE,74,5.0,20.0,73,0.00,,,0.00,meteohub,2015-01-31 06:32:00,
2015-01-31 01:37:00,19.9,12.7,29.73,ENE,74,3.0,17.0,73,0.00,,,0.00,meteohub,2015-01-31 06:37:00,
2015-01-31 01:42:00,19.9,12.7,29.73,ENE,74,2.0,16.0,73,0.00,,,0.00,meteohub,2015-01-31 06:42:00,
2015-01-31 01:47:00,19.8,12.6,29.73,ENE,74,4.0,16.0,73,0.00,,,0.00,meteohub,2015-01-31 06:47:00,
2015-01-31 01:52:00,19.8,12.6,29.73,ENE,74,4.0,16.0,73,0.00,,,0.00,meteohub,2015-01-31 06:52:00,
2015-01-31 01:57:00,19.8,12.7,29.73,ENE,74,5.0,16.0,74,0.00,,,0.00,meteohub,2015-01-31 06:57:00,
2015-01-31 02:02:00,19.6,12.4,29.73,ENE,74,5.0,16.0,73,0.00,,,0.00,meteohub,2015-01-31 07:02:00,
2015-01-31 02:07:00,19.4,12.2,29.73,ENE,74,11.0,16.0,73,0.00,,,0.00,meteohub,2015-01-31 07:07:00,
2015-01-31 02:12:00,19.2,12.0,29.74,ENE,74,8.0,17.0,73,0.00,,,0.00,meteohub,2015-01-31 07:12:00,
2015-01-31 02:17:00,19.0,11.8,29.74,ENE,74,3.0,20.0,73,0.00,,,0.00,meteohub,2015-01-31 07:17:00,
2015-01-31 02:22:00,19.0,11.8,29.73,ENE,74,9.0,20.0,73,0.00,,,0.00,meteohub,2015-01-31 07:22:00,
2015-01-31 02:27:00,18.9,11.7,29.74,ENE,74,5.0,20.0,73,0.00,,,0.00,meteohub,2015-01-31 07:27:00,
2015-01-31 02:32:00,18.9,11.7,29.74,ENE,74,7.0,20.0,73,0.00,,,0.00,meteohub,2015-01-31 07:32:00,
2015-01-31 02:37:00,18.9,11.7,29.74,ENE,74,0.0,20.0,73,0.00,,,0.00,meteohub,2015-01-31 07:37:00,
2015-01-31 02:42:00,18.9,12.0,29.74,ENE,74,11.0,20.0,74,0.00,,,0.00,meteohub,2015-01-31 07:42:00,
2015-01-31 02:47:00,18.7,11.5,29.74,ENE,74,3.0,12.0,73,0.00,,,0.00,meteohub,2015-01-31 07:47:00,
2015-01-31 02:52:00,18.7,11.8,29.74,ENE,74,10.0,12.0,74,0.00,,,0.00,meteohub,2015-01-31 07:52:00,
2015-01-31 02:57:00,18.7,11.8,29.74,ENE,74,8.0,13.0,74,0.00,,,0.00,meteohub,2015-01-31 07:57:00,
2015-01-31 03:02:00,18.3,11.1,29.75,ENE,74,1.0,13.0,73,0.00,,,0.00,meteohub,2015-01-31 08:02:00,
2015-01-31 03:07:00,18.1,10.9,29.75,ENE,74,7.0,13.0,73,0.00,,,0.00,meteohub,2015-01-31 08:07:00,
2015-01-31 03:12:00,18.0,10.8,29.75,ENE,74,5.0,14.0,73,0.00,,,0.00,meteohub,2015-01-31 08:12:00,
2015-01-31 03:17:00,17.8,10.2,29.75,ENE,74,8.0,16.0,72,0.00,,,0.00,meteohub,2015-01-31 08:17:00,
2015-01-31 03:22:00,17.8,10.2,29.75,ENE,74,7.0,16.0,72,0.00,,,0.00,meteohub,2015-01-31 08:22:00,
2015-01-31 03:27:00,17.6,10.4,29.75,ENE,74,10.0,16.0,73,0.00,,,0.00,meteohub,2015-01-31 08:27:00,
2015-01-31 03:32:00,17.4,10.2,29.75,ENE,74,2.0,17.0,73,0.00,,,0.00,meteohub,2015-01-31 08:32:00,
2015-01-31 03:37:00,17.4,10.2,29.75,ENE,74,7.0,17.0,73,0.00,,,0.00,meteohub,2015-01-31 08:37:00,
2015-01-31 03:42:00,17.2,9.9,29.75,ENE,74,11.0,17.0,72,0.00,,,0.00,meteohub,2015-01-31 08:42:00,
2015-01-31 03:47:00,17.2,10.0,29.75,ENE,74,4.0,16.0,73,0.00,,,0.00,meteohub,2015-01-31 08:47:00,
2015-01-31 03:52:00,17.1,10.2,29.75,ENE,74,4.0,15.0,74,0.00,,,0.00,meteohub,2015-01-31 08:52:00,
2015-01-31 03:57:00,17.1,10.6,29.75,ENE,74,3.0,14.0,75,0.00,,,0.00,meteohub,2015-01-31 08:57:00,
2015-01-31 04:02:00,17.1,10.6,29.75,ENE,74,8.0,14.0,75,0.00,,,0.00,meteohub,2015-01-31 09:02:00,
2015-01-31 04:07:00,16.9,10.6,29.75,ENE,74,3.0,14.0,76,0.00,,,0.00,meteohub,2015-01-31 09:07:00,
2015-01-31 04:12:00,16.7,10.4,29.75,ENE,74,5.0,13.0,76,0.00,,,0.00,meteohub,2015-01-31 09:12:00,
2015-01-31 04:17:00,16.5,10.6,29.75,ENE,74,7.0,14.0,77,0.00,,,0.00,meteohub,2015-01-31 09:17:00,
2015-01-31 04:22:00,16.3,10.4,29.75,ENE,74,3.0,14.0,77,0.00,,,0.00,meteohub,2015-01-31 09:22:00,
2015-01-31 04:27:00,16.3,10.8,29.75,ENE,74,2.0,14.0,78,0.00,,,0.00,meteohub,2015-01-31 09:27:00,
2015-01-31 04:32:00,16.0,10.4,29.75,ENE,74,9.0,13.0,78,0.00,,,0.00,meteohub,2015-01-31 09:32:00,
2015-01-31 04:37:00,15.8,10.4,29.75,ENE,74,9.0,14.0,79,0.00,,,0.00,meteohub,2015-01-31 09:37:00,
2015-01-31 04:42:00,15.6,10.6,29.75,ENE,74,4.0,14.0,80,0.00,,,0.00,meteohub,2015-01-31 09:42:00,
2015-01-31 04:47:00,15.4,10.6,29.75,ENE,74,2.0,14.0,81,0.00,,,0.00,meteohub,2015-01-31 09:47:00,
2015-01-31 04:52:00,15.4,10.6,29.75,ENE,74,7.0,11.0,81,0.00,,,0.00,meteohub,2015-01-31 09:52:00,
2015-01-31 04:57:00,15.3,11.1,29.75,ENE,74,7.0,13.0,83,0.00,,,0.00,meteohub,2015-01-31 09:57:00,
2015-01-31 05:02:00,15.1,11.1,29.75,ENE,74,3.0,13.0,84,0.00,,,0.00,meteohub,2015-01-31 10:02:00,
2015-01-31 05:07:00,14.9,10.9,29.75,ENE,74,3.0,14.0,84,0.00,,,0.00,meteohub,2015-01-31 10:07:00,
2015-01-31 05:12:00,14.7,11.1,29.75,ENE,74,12.0,14.0,85,0.00,,,0.00,meteohub,2015-01-31 10:12:00,
2015-01-31 05:17:00,14.7,11.1,29.75,ENE,74,2.0,13.0,85,0.00,,,0.00,meteohub,2015-01-31 10:17:00,
2015-01-31 05:22:00,14.7,11.1,29.75,ENE,74,4.0,13.0,85,0.00,,,0.00,meteohub,2015-01-31 10:22:00,
2015-01-31 05:27:00,14.5,11.1,29.76,ENE,74,3.0,12.0,86,0.00,,,0.00,meteohub,2015-01-31 10:27:00,
2015-01-31 05:32:00,14.4,10.9,29.76,ENE,74,0.0,12.0,86,0.00,,,0.00,meteohub,2015-01-31 10:32:00,
2015-01-31 05:37:00,14.4,11.1,29.76,ENE,74,8.0,12.0,87,0.00,,,0.00,meteohub,2015-01-31 10:37:00,
2015-01-31 05:42:00,14.2,10.9,29.77,ENE,74,10.0,15.0,87,0.00,,,0.00,meteohub,2015-01-31 10:42:00,
2015-01-31 05:47:00,14.0,10.9,29.76,ENE,74,5.0,15.0,87,0.00,,,0.00,meteohub,2015-01-31 10:47:00,
2015-01-31 05:52:00,13.8,10.9,29.77,ENE,74,4.0,15.0,88,0.00,,,0.00,meteohub,2015-01-31 10:52:00,
2015-01-31 05:57:00,13.6,10.8,29.76,ENE,74,5.0,15.0,88,0.00,,,0.00,meteohub,2015-01-31 10:57:00,
2015-01-31 06:02:00,13.6,10.8,29.77,ENE,74,8.0,15.0,88,0.00,,,0.00,meteohub,2015-01-31 11:02:00,
2015-01-31 06:07:00,13.6,10.9,29.77,ENE,74,8.0,14.0,89,0.00,,,0.00,meteohub,2015-01-31 11:07:00,
2015-01-31 06:12:00,13.6,10.9,29.77,ENE,74,9.0,17.0,89,0.00,,,0.00,meteohub,2015-01-31 11:12:00,
2015-01-31 06:17:00,13.5,10.8,29.77,ENE,74,4.0,17.0,89,0.00,,,0.00,meteohub,2015-01-31 11:17:00,
2015-01-31 06:22:00,13.5,10.8,29.77,ENE,74,4.0,17.0,89,0.00,,,0.00,meteohub,2015-01-31 11:22:00,
2015-01-31 06:27:00,13.3,10.6,29.78,ENE,74,3.0,16.0,89,0.00,,,0.00,meteohub,2015-01-31 11:27:00,
2015-01-31 06:32:00,13.3,10.6,29.78,ENE,74,1.0,16.0,89,0.00,,,0.00,meteohub,2015-01-31 11:32:00,
2015-01-31 06:37:00,13.1,10.4,29.78,ENE,74,7.0,16.0,89,0.00,,,0.00,meteohub,2015-01-31 11:37:00,
2015-01-31 06:42:00,13.1,10.4,29.78,ENE,74,5.0,15.0,89,0.00,,,0.00,meteohub,2015-01-31 11:42:00,
2015-01-31 06:47:00,12.9,10.2,29.78,ENE,74,3.0,14.0,89,0.00,,,0.00,meteohub,2015-01-31 11:47:00,
2015-01-31 06:52:00,12.9,10.2,29.78,ENE,74,1.0,14.0,89,0.00,,,0.00,meteohub,2015-01-31 11:52:00,
2015-01-31 06:57:00,12.9,10.6,29.78,ENE,74,1.0,15.0,90,0.00,,,0.00,meteohub,2015-01-31 11:57:00,
2015-01-31 07:02:00,13.1,10.8,29.78,ENE,74,3.0,15.0,90,0.00,,,0.00,meteohub,2015-01-31 12:02:00,